createdAt,value
2019-02-17T00:02:25.214Z,14.40
2019-02-17T00:04:55.357Z,13.13
2019-02-17T00:07:24.869Z,14.57
2019-02-17T00:09:54.374Z,14.80
2019-02-17T00:12:24.055Z,14.63
2019-02-17T00:14:53.310Z,13.97
2019-02-17T00:17:23.191Z,14.93
2019-02-17T00:19:52.499Z,14.17
2019-02-17T00:22:22.002Z,13.60
2019-02-17T00:25:10.201Z,14.00
2019-02-17T00:27:39.701Z,14.20
2019-02-17T00:30:08.974Z,14.53
2019-02-17T00:32:38.564Z,13.83
2019-02-17T00:35:08.069Z,13.60
2019-02-17T00:37:37.596Z,14.67
2019-02-17T00:40:46.579Z,15.53
2019-02-17T00:43:16.188Z,14.77
2019-02-17T00:45:45.771Z,15.07
2019-02-17T00:48:15.227Z,15.23
2019-02-17T00:50:44.473Z,15.80
2019-02-17T00:53:13.677Z,15.90
2019-02-17T00:55:43.737Z,15.20
2019-02-17T00:58:12.937Z,14.80
2019-02-17T01:00:42.418Z,15.40
2019-02-17T01:03:11.622Z,15.67
2019-02-17T01:05:41.331Z,15.63
2019-02-17T01:08:10.909Z,17.80
2019-02-17T01:10:40.379Z,18.30
2019-02-17T01:13:10.146Z,18.23
2019-02-17T01:15:39.665Z,18.73
2019-02-17T01:18:09.154Z,18.97
2019-02-17T01:23:14.082Z,18.60
2019-02-17T01:25:43.942Z,18.20
2019-02-17T01:28:13.802Z,18.70
2019-02-17T01:33:37.827Z,16.33
2019-02-17T01:36:07.353Z,17.53
2019-02-17T01:38:36.852Z,17.57
2019-02-17T01:41:06.469Z,17.57
2019-02-17T01:43:35.963Z,17.50
2019-02-17T01:46:05.440Z,16.73
2019-02-17T01:48:34.644Z,16.70
2019-02-17T01:51:04.164Z,18.17
2019-02-17T01:53:33.971Z,17.07
2019-02-17T01:56:03.786Z,17.43
2019-02-17T01:58:33.807Z,15.93
2019-02-17T02:01:03.117Z,15.77
2019-02-17T02:03:32.648Z,16.03
2019-02-17T02:06:02.802Z,16.30
2019-02-17T02:11:20.832Z,15.73
2019-02-17T02:13:50.706Z,17.77
2019-02-17T02:16:19.920Z,16.87
2019-02-17T02:18:49.151Z,18.13
2019-02-17T02:21:18.643Z,17.07
2019-02-17T02:23:47.891Z,17.80
2019-02-17T02:26:17.372Z,18.17
2019-02-17T02:28:46.577Z,18.43
2019-02-17T02:34:30.814Z,18.47
2019-02-17T02:37:00.079Z,18.37
2019-02-17T02:39:29.565Z,19.57
2019-02-17T02:41:58.802Z,19.90
2019-02-17T02:44:28.362Z,19.83
2019-02-17T02:46:58.163Z,19.97
2019-02-17T02:49:27.945Z,19.70
2019-02-17T02:51:57.461Z,20.03
2019-02-17T02:54:26.955Z,20.20
2019-02-17T02:56:56.570Z,19.77
2019-02-17T02:59:26.095Z,19.30
2019-02-17T03:01:55.579Z,19.80
2019-02-17T03:04:25.068Z,19.80
2019-02-17T03:07:05.891Z,18.77
2019-02-17T03:09:35.106Z,19.03
2019-02-17T03:12:04.633Z,17.63
2019-02-17T03:14:33.857Z,17.93
2019-02-17T03:17:03.364Z,17.70
2019-02-17T03:19:32.917Z,18.00
2019-02-17T03:22:02.406Z,19.42
2019-02-17T03:24:31.952Z,17.13
2019-02-17T03:27:01.460Z,18.17
2019-02-17T03:29:31.218Z,17.10
2019-02-17T03:32:00.730Z,16.77
2019-02-17T03:34:29.935Z,16.63
2019-02-17T03:37:18.166Z,16.90
2019-02-17T03:39:47.396Z,15.87
2019-02-17T03:42:16.634Z,16.53
2019-02-17T03:44:45.864Z,16.87
2019-02-17T03:47:15.123Z,16.53
2019-02-17T03:49:44.591Z,16.37
2019-02-17T03:52:14.100Z,16.43
2019-02-17T03:54:43.577Z,18.07
2019-02-17T03:57:13.343Z,16.40
2019-02-17T03:59:42.582Z,15.83
2019-02-17T04:02:11.823Z,16.20
2019-02-17T04:04:41.018Z,16.70
2019-02-17T04:07:10.263Z,14.70
2019-02-17T04:09:40.049Z,16.30
2019-02-17T04:12:09.543Z,16.50
2019-02-17T04:14:38.747Z,15.50
2019-02-17T04:17:08.256Z,16.23
2019-02-17T04:19:37.494Z,15.90
2019-02-17T04:22:07.148Z,17.93
2019-02-17T04:24:36.346Z,17.00
2019-02-17T04:27:05.837Z,17.00
2019-02-17T04:29:35.046Z,17.77
2019-02-17T04:32:04.544Z,17.47
2019-02-17T04:34:33.743Z,19.87
2019-02-17T04:37:03.008Z,19.07
2019-02-17T04:39:32.492Z,18.40
2019-02-17T04:42:02.003Z,18.13
2019-02-17T04:44:31.475Z,16.70
2019-02-17T04:47:01.093Z,15.53
2019-02-17T04:49:30.695Z,16.33
2019-02-17T04:52:00.219Z,17.80
2019-02-17T04:54:29.701Z,16.20
2019-02-17T04:56:58.921Z,17.20
2019-02-17T04:59:28.685Z,17.27
2019-02-17T05:01:57.918Z,16.57
2019-02-17T05:04:27.126Z,17.63
2019-02-17T05:06:56.362Z,17.37
2019-02-17T05:09:25.837Z,18.73
2019-02-17T05:11:55.431Z,17.40
2019-02-17T05:14:25.323Z,18.67
2019-02-17T05:16:54.867Z,16.63
2019-02-17T05:19:24.743Z,16.70
2019-02-17T05:21:54.011Z,16.80
2019-02-17T05:24:23.924Z,15.43
2019-02-17T05:26:53.810Z,16.07
2019-02-17T05:29:23.303Z,16.40
2019-02-17T05:31:54.110Z,15.47
2019-02-17T05:34:23.346Z,14.37
2019-02-17T05:36:52.959Z,14.37
2019-02-17T05:39:22.462Z,14.73
2019-02-17T05:41:52.019Z,14.93
2019-02-17T05:44:21.215Z,15.40
2019-02-17T05:46:50.846Z,14.80
2019-02-17T05:49:20.358Z,15.37
2019-02-17T05:51:49.838Z,15.97
2019-02-17T05:54:19.672Z,14.83
2019-02-17T05:56:49.189Z,15.07
2019-02-17T05:59:18.676Z,15.57
2019-02-17T06:01:48.195Z,15.70
2019-02-17T06:04:17.684Z,15.77
2019-02-17T06:07:06.247Z,15.77
2019-02-17T06:09:35.729Z,16.13
2019-02-17T06:12:05.239Z,16.57
2019-02-17T06:14:34.482Z,16.73
2019-02-17T06:17:03.994Z,16.13
2019-02-17T06:19:33.861Z,17.33
2019-02-17T06:22:05.128Z,17.53
2019-02-17T06:24:34.750Z,17.20
2019-02-17T06:27:04.526Z,17.73
2019-02-17T06:29:34.034Z,17.90
2019-02-17T06:32:03.350Z,18.07
2019-02-17T06:34:32.855Z,17.63
2019-02-17T06:37:02.447Z,17.53
2019-02-17T06:39:31.980Z,17.30
2019-02-17T06:42:01.747Z,18.43
2019-02-17T06:44:31.509Z,17.57
2019-02-17T06:49:42.273Z,17.97
2019-02-17T06:52:11.517Z,17.63
2019-02-17T06:57:35.428Z,16.77
2019-02-17T07:00:24.158Z,18.57
2019-02-17T07:02:53.674Z,16.47
2019-02-17T07:05:42.103Z,16.50
2019-02-17T07:08:12.070Z,17.40
2019-02-17T07:10:41.543Z,16.73
2019-02-17T07:13:11.087Z,15.97
2019-02-17T07:15:40.548Z,15.63
2019-02-17T07:18:09.782Z,15.40
2019-02-17T07:20:38.996Z,15.23
2019-02-17T07:23:08.250Z,15.90
2019-02-17T07:25:38.170Z,15.23
2019-02-17T07:28:07.963Z,15.60
2019-02-17T07:30:37.441Z,14.93
2019-02-17T07:33:07.328Z,15.70
2019-02-17T07:35:44.522Z,13.87
2019-02-17T07:38:14.440Z,15.60
2019-02-17T07:40:43.846Z,14.93
2019-02-17T07:43:13.628Z,14.33
2019-02-17T07:45:43.140Z,15.67
2019-02-17T07:48:12.650Z,15.80
2019-02-17T07:50:42.150Z,15.53
2019-02-17T07:53:12.074Z,15.37
2019-02-17T07:55:41.291Z,15.87
2019-02-17T07:58:10.526Z,15.90
2019-02-17T08:00:40.008Z,15.57
2019-02-17T08:03:09.631Z,15.43
2019-02-17T08:05:39.088Z,15.00
2019-02-17T08:08:08.304Z,15.57
2019-02-17T08:10:37.796Z,15.70
2019-02-17T08:13:07.305Z,16.57
2019-02-17T08:15:36.803Z,16.30
2019-02-17T08:18:06.304Z,15.77
2019-02-17T08:20:36.670Z,15.80
2019-02-17T08:23:07.336Z,15.30
2019-02-17T08:25:36.763Z,16.90
2019-02-17T08:28:06.268Z,17.23
2019-02-17T08:30:36.423Z,16.53
2019-02-17T08:33:05.943Z,15.33
2019-02-17T08:35:35.416Z,16.20
2019-02-17T08:38:04.651Z,15.97
2019-02-17T08:40:33.865Z,16.17
2019-02-17T08:43:03.336Z,16.00
2019-02-17T08:45:32.819Z,15.37
2019-02-17T08:48:02.294Z,16.17
2019-02-17T08:50:51.350Z,15.17
2019-02-17T08:53:20.577Z,15.33
2019-02-17T08:55:50.065Z,14.23
2019-02-17T08:58:19.583Z,14.20
2019-02-17T09:00:49.066Z,14.07
2019-02-17T09:03:18.549Z,14.40
2019-02-17T09:05:48.064Z,13.90
2019-02-17T09:08:17.308Z,14.00
2019-02-17T09:10:46.807Z,15.03
2019-02-17T09:13:18.491Z,15.23
2019-02-17T09:15:47.518Z,14.60
2019-02-17T09:18:16.712Z,14.47
2019-02-17T09:20:45.943Z,14.40
2019-02-17T09:23:15.426Z,13.80
2019-02-17T09:25:44.920Z,14.07
2019-02-17T09:28:14.135Z,13.20
2019-02-17T09:30:43.368Z,12.87
2019-02-17T09:33:12.585Z,13.77
2019-02-17T09:35:41.814Z,12.37
2019-02-17T09:38:11.755Z,12.63
2019-02-17T09:40:41.077Z,12.17
2019-02-17T09:43:10.628Z,11.53
2019-02-17T09:45:39.864Z,11.10
2019-02-17T09:48:09.537Z,12.80
2019-02-17T09:50:39.066Z,12.03
2019-02-17T09:53:09.018Z,11.70
2019-02-17T09:58:13.301Z,12.13
2019-02-17T10:00:43.392Z,12.20
2019-02-17T10:03:13.383Z,12.87
2019-02-17T10:05:42.634Z,11.97
2019-02-17T10:08:12.096Z,11.63
2019-02-17T10:11:00.660Z,11.27
2019-02-17T10:13:30.139Z,11.07
2019-02-17T10:15:59.706Z,11.13
2019-02-17T10:18:29.328Z,11.10
2019-02-17T10:20:59.843Z,11.27
2019-02-17T10:23:29.063Z,10.77
2019-02-17T10:25:58.383Z,10.83
2019-02-17T10:28:28.139Z,10.33
2019-02-17T10:30:57.383Z,11.23
2019-02-17T10:33:27.250Z,10.63
2019-02-17T10:35:56.864Z,10.57
2019-02-17T10:38:26.106Z,10.67
2019-02-17T10:40:55.632Z,10.20
2019-02-17T10:43:25.626Z,10.33
2019-02-17T10:45:55.160Z,10.60
2019-02-17T10:48:24.378Z,10.70
2019-02-17T10:50:53.738Z,10.03
2019-02-17T10:53:22.949Z,10.33
2019-02-17T10:55:52.444Z,10.73
2019-02-17T10:58:21.947Z,10.63
2019-02-17T11:00:51.887Z,10.27
2019-02-17T11:03:21.868Z,10.00
2019-02-17T11:05:51.694Z,10.50
2019-02-17T11:08:21.547Z,10.43
2019-02-17T11:10:51.256Z,10.13
2019-02-17T11:13:21.079Z,9.43
2019-02-17T11:15:50.606Z,9.97
2019-02-17T11:18:20.090Z,9.77
2019-02-17T11:20:50.009Z,10.87
2019-02-17T11:23:19.797Z,10.30
2019-02-17T11:25:49.022Z,10.20
2019-02-17T11:28:18.278Z,9.37
2019-02-17T11:30:47.569Z,9.87
2019-02-17T11:33:17.362Z,10.23
2019-02-17T11:35:47.041Z,10.23
2019-02-17T11:38:16.594Z,9.50
2019-02-17T11:40:45.832Z,9.50
2019-02-17T11:43:15.063Z,10.30
2019-02-17T11:45:44.290Z,9.80
2019-02-17T11:48:13.763Z,9.10
2019-02-17T11:50:42.997Z,9.37
2019-02-17T11:53:12.456Z,9.80
2019-02-17T11:55:42.043Z,9.03
2019-02-17T11:58:11.293Z,9.73
2019-02-17T12:00:40.793Z,9.83
2019-02-17T12:03:10.015Z,9.37
2019-02-17T12:05:39.243Z,9.43
2019-02-17T12:08:08.775Z,8.87
2019-02-17T12:10:37.996Z,8.87
2019-02-17T12:13:07.516Z,8.13
2019-02-17T12:15:36.702Z,8.77
2019-02-17T12:18:05.920Z,9.40
2019-02-17T12:20:54.088Z,8.13
2019-02-17T12:23:42.245Z,8.87
2019-02-17T12:26:30.426Z,8.63
2019-02-17T12:29:18.564Z,8.77
2019-02-17T12:31:48.400Z,8.87
2019-02-17T12:34:17.628Z,9.20
2019-02-17T12:36:46.893Z,8.80
2019-02-17T12:39:16.101Z,9.00
2019-02-17T12:41:45.363Z,8.80
2019-02-17T12:44:14.707Z,8.47
2019-02-17T12:46:44.342Z,8.50
2019-02-17T12:49:13.576Z,8.27
2019-02-17T12:51:43.144Z,8.30
2019-02-17T12:54:12.664Z,7.87
2019-02-17T12:56:42.311Z,7.87
2019-02-17T12:59:11.530Z,7.27
2019-02-17T13:01:40.916Z,6.50
2019-02-17T13:04:10.134Z,6.47
2019-02-17T13:06:39.391Z,6.73
2019-02-17T13:09:27.695Z,8.47
2019-02-17T13:11:57.012Z,8.47
2019-02-17T13:14:26.228Z,8.30
2019-02-17T13:16:55.505Z,8.97
2019-02-17T13:19:25.088Z,7.80
2019-02-17T13:21:54.362Z,7.00
2019-02-17T13:24:23.725Z,7.63
2019-02-17T13:26:52.975Z,7.10
2019-02-17T13:29:22.220Z,6.40
2019-02-17T13:31:51.455Z,6.50
2019-02-17T13:34:20.690Z,6.67
2019-02-17T13:36:50.297Z,6.83
2019-02-17T13:39:19.825Z,5.87
2019-02-17T13:41:49.117Z,6.40
2019-02-17T13:44:39.812Z,6.67
2019-02-17T13:47:09.118Z,6.53
2019-02-17T13:55:31.703Z,6.40
2019-02-17T13:58:20.561Z,6.40
2019-02-17T14:01:08.848Z,6.80
2019-02-17T14:03:48.297Z,7.10
2019-02-17T14:06:12.808Z,6.87
2019-02-17T14:08:42.786Z,7.17
2019-02-17T14:11:12.279Z,6.43
2019-02-17T14:13:41.858Z,6.63
2019-02-17T14:16:11.431Z,6.17
2019-02-17T14:18:40.731Z,6.67
2019-02-17T14:21:10.241Z,5.70
2019-02-17T14:23:39.473Z,6.10
2019-02-17T14:26:08.991Z,5.83
2019-02-17T14:28:40.498Z,6.80
2019-02-17T14:31:09.733Z,6.13
2019-02-17T14:33:39.208Z,5.72
2019-02-17T14:36:08.404Z,5.53
2019-02-17T14:38:38.129Z,4.78
2019-02-17T14:41:07.603Z,5.42
2019-02-17T14:43:36.952Z,5.40
2019-02-17T14:46:06.130Z,4.92
2019-02-17T14:48:35.362Z,4.80
2019-02-17T14:51:04.566Z,5.00
2019-02-17T14:53:33.845Z,4.90
2019-02-17T14:56:03.459Z,4.80
2019-02-17T14:58:33.405Z,4.33
2019-02-17T15:01:02.613Z,4.67
2019-02-17T15:03:32.686Z,4.23
2019-02-17T15:06:02.020Z,4.93
2019-02-17T15:08:31.534Z,7.15
2019-02-17T15:11:02.987Z,7.03
2019-02-17T15:13:32.621Z,6.57
2019-02-17T15:16:02.391Z,6.90
2019-02-17T15:18:31.623Z,6.70
2019-02-17T15:21:01.145Z,6.77
2019-02-17T15:23:30.443Z,6.40
2019-02-17T15:25:59.725Z,6.40
2019-02-17T15:28:29.282Z,5.93
2019-02-17T15:30:58.609Z,5.43
2019-02-17T15:33:27.838Z,4.80
2019-02-17T15:35:57.333Z,4.10
2019-02-17T15:38:26.588Z,3.90
2019-02-17T15:40:56.566Z,4.33
2019-02-17T15:43:27.155Z,4.50
2019-02-17T15:45:56.633Z,4.40
2019-02-17T15:48:26.483Z,4.07
2019-02-17T15:50:55.974Z,4.33
2019-02-17T15:53:25.597Z,4.20
2019-02-17T15:55:54.900Z,4.23
2019-02-17T15:58:44.981Z,4.40
2019-02-17T16:01:18.098Z,4.13
2019-02-17T16:03:48.063Z,4.07
2019-02-17T16:06:18.694Z,4.57
2019-02-17T16:08:48.636Z,4.50
2019-02-17T16:14:26.706Z,4.90
2019-02-17T16:16:56.368Z,4.27
2019-02-17T16:19:25.799Z,4.50
2019-02-17T16:21:55.355Z,4.90
2019-02-17T16:24:24.928Z,7.47
2019-02-17T16:26:54.482Z,5.97
2019-02-17T16:29:23.706Z,5.30
2019-02-17T16:31:53.087Z,4.27
2019-02-17T16:34:22.271Z,4.80
2019-02-17T16:39:39.744Z,4.60
2019-02-17T16:42:08.947Z,5.20
2019-02-17T16:47:36.548Z,5.80
2019-02-17T16:50:07.096Z,5.63
2019-02-17T16:52:36.781Z,6.07
2019-02-17T16:55:06.773Z,5.53
2019-02-17T16:57:37.010Z,6.00
2019-02-17T17:00:07.468Z,6.33
2019-02-17T17:02:36.826Z,6.67
2019-02-17T17:05:06.224Z,5.77
2019-02-17T17:07:35.476Z,6.20
2019-02-17T17:13:19.497Z,6.90
2019-02-17T17:15:48.858Z,6.90
2019-02-17T17:18:18.375Z,6.10
2019-02-17T17:20:47.671Z,6.90
2019-02-17T17:23:17.239Z,6.03
2019-02-17T17:25:47.042Z,6.80
2019-02-17T17:28:36.762Z,6.80
2019-02-17T17:31:06.002Z,6.97
2019-02-17T17:33:35.288Z,6.93
2019-02-17T17:36:23.636Z,6.80
2019-02-17T17:41:41.201Z,7.27
2019-02-17T17:44:10.825Z,6.83
2019-02-17T17:46:40.171Z,7.97
2019-02-17T17:49:18.856Z,7.43
2019-02-17T17:52:00.144Z,7.80
2019-02-17T17:54:29.416Z,7.23
2019-02-17T17:56:58.923Z,6.87
2019-02-17T17:59:28.457Z,7.77
2019-02-17T18:01:58.444Z,8.00
2019-02-17T18:04:46.785Z,7.40
2019-02-17T18:07:16.107Z,7.07
2019-02-17T18:09:45.619Z,7.10
2019-02-17T18:12:14.954Z,7.57
2019-02-17T18:14:44.884Z,8.40
2019-02-17T18:17:14.443Z,7.57
2019-02-17T18:19:44.091Z,7.93
2019-02-17T18:22:13.974Z,7.60
2019-02-17T18:25:02.285Z,8.00
2019-02-17T18:27:31.531Z,7.63
2019-02-17T18:30:00.784Z,7.60
2019-02-17T18:32:30.041Z,7.67
2019-02-17T18:34:59.382Z,7.87
2019-02-17T18:40:11.435Z,8.63
2019-02-17T18:42:40.686Z,7.67
2019-02-17T18:45:29.641Z,8.03
2019-02-17T18:48:17.918Z,6.87
2019-02-17T18:50:48.084Z,7.27
2019-02-17T18:53:18.258Z,6.77
2019-02-17T18:55:47.848Z,8.40
2019-02-17T18:58:17.080Z,7.50
2019-02-17T19:00:46.970Z,7.30
2019-02-17T19:03:16.230Z,8.30
2019-02-17T19:05:46.149Z,8.10
2019-02-17T19:08:15.483Z,8.40
2019-02-17T19:10:44.727Z,8.00
2019-02-17T19:13:33.030Z,8.00
2019-02-17T19:16:02.819Z,7.60
2019-02-17T19:18:32.365Z,7.73
2019-02-17T19:21:01.948Z,7.73
2019-02-17T19:23:31.560Z,8.00
2019-02-17T19:26:01.161Z,7.77
2019-02-17T19:28:30.737Z,7.97
2019-02-17T19:31:19.033Z,7.80
2019-02-17T19:33:48.287Z,7.37
2019-02-17T19:36:17.890Z,7.80
2019-02-17T19:38:47.405Z,7.43
2019-02-17T19:41:36.092Z,7.50
2019-02-17T20:04:15.846Z,7.83
2019-02-17T20:06:46.301Z,7.43
2019-02-17T20:09:41.969Z,7.90
2019-02-17T20:19:42.903Z,7.03
2019-02-17T20:22:12.205Z,7.40
2019-02-17T20:24:41.433Z,7.97
2019-02-17T20:30:27.311Z,7.17
2019-02-17T20:32:56.855Z,7.13
2019-02-17T20:35:26.669Z,7.47
2019-02-17T20:37:56.503Z,7.20
2019-02-17T20:40:26.200Z,7.73
2019-02-17T20:42:55.429Z,7.63
2019-02-17T20:45:24.653Z,7.50
2019-02-17T20:47:54.257Z,7.13
2019-02-17T20:50:23.901Z,7.60
2019-02-17T20:52:53.598Z,7.10
2019-02-17T20:55:43.741Z,7.93
2019-02-17T20:58:32.039Z,6.90
2019-02-17T21:01:01.629Z,7.00
2019-02-17T21:03:30.889Z,7.27
2019-02-17T21:06:00.569Z,7.60
2019-02-17T21:08:30.072Z,7.10
2019-02-17T21:10:59.594Z,7.07
2019-02-17T21:13:29.440Z,6.87
2019-02-17T21:15:58.713Z,7.17
2019-02-17T21:18:28.629Z,7.17
2019-02-17T21:20:58.197Z,7.27
2019-02-17T21:23:27.463Z,7.83
2019-02-17T21:25:57.116Z,6.90
2019-02-17T21:28:26.657Z,7.23
2019-02-17T21:30:56.438Z,7.20
2019-02-17T21:33:25.683Z,6.53
2019-02-17T21:38:50.036Z,7.17
2019-02-17T21:41:20.316Z,6.87
2019-02-17T21:43:50.526Z,7.33
2019-02-17T21:46:39.215Z,7.37
2019-02-17T21:49:08.873Z,7.80
2019-02-17T21:51:38.214Z,7.17
2019-02-17T21:54:07.880Z,6.47
2019-02-17T21:56:37.450Z,6.70
2019-02-17T21:59:25.739Z,6.53
2019-02-17T22:01:56.086Z,7.10
2019-02-17T22:05:03.275Z,7.07
2019-02-17T22:07:35.047Z,7.23
2019-02-17T22:13:04.130Z,6.83
2019-02-17T22:15:33.403Z,6.67
2019-02-17T22:18:04.147Z,7.10
2019-02-17T22:20:34.034Z,6.97
2019-02-17T22:23:03.735Z,6.90
2019-02-17T22:25:33.443Z,7.20
2019-02-17T22:28:03.098Z,7.17
2019-02-17T22:30:32.812Z,7.43
2019-02-17T22:33:02.459Z,7.33
2019-02-17T22:35:31.707Z,7.20
2019-02-17T22:38:19.923Z,6.57
2019-02-17T22:40:49.111Z,7.00
2019-02-17T22:43:18.353Z,6.97
2019-02-17T22:45:47.856Z,7.20
2019-02-17T22:48:17.142Z,6.43
2019-02-17T22:50:46.341Z,7.23
2019-02-17T22:53:15.596Z,7.03
2019-02-17T22:55:45.217Z,7.40
2019-02-17T22:58:14.437Z,7.73
2019-02-17T23:01:03.133Z,7.00
2019-02-17T23:03:33.692Z,7.97
2019-02-17T23:06:02.937Z,7.43
2019-02-17T23:08:32.186Z,7.40
2019-02-17T23:11:01.482Z,7.00
2019-02-17T23:13:31.248Z,6.97
2019-02-17T23:16:00.859Z,6.80
2019-02-17T23:18:30.167Z,7.20
2019-02-17T23:20:59.732Z,6.90
2019-02-17T23:23:29.649Z,7.27
2019-02-17T23:25:58.845Z,6.63
2019-02-17T23:28:28.402Z,7.20
2019-02-17T23:33:45.938Z,6.87
2019-02-17T23:36:15.420Z,7.07
2019-02-17T23:38:44.756Z,7.13
2019-02-17T23:41:14.185Z,6.70
2019-02-17T23:43:43.416Z,6.60
2019-02-17T23:46:12.640Z,7.03
2019-02-17T23:49:00.938Z,6.07
2019-02-17T23:51:30.144Z,6.87
2019-02-17T23:53:59.360Z,6.60
2019-02-17T23:56:28.558Z,7.20
2019-02-17T23:58:57.803Z,7.03
